sensor_id;sensor_type;location;lat;lon;timestamp;temperature;humidity
56256;DHT22;57229;51.432;-2.598;2022-11-23T00:03:45;12.10;99.90
56256;DHT22;57229;51.432;-2.598;2022-11-23T00:06:12;12.10;99.90
56256;DHT22;57229;51.432;-2.598;2022-11-23T00:08:37;12.10;99.90
56256;DHT22;57229;51.432;-2.598;2022-11-23T00:11:04;12.10;99.90
56256;DHT22;57229;51.432;-2.598;2022-11-23T00:13:30;12.10;99.90
56256;DHT22;57229;51.432;-2.598;2022-11-23T00:15:55;12.10;99.90
56256;DHT22;57229;51.432;-2.598;2022-11-23T00:18:21;12.10;99.90
56256;DHT22;57229;51.432;-2.598;2022-11-23T00:20:47;12.10;99.90
56256;DHT22;57229;51.432;-2.598;2022-11-23T00:23:12;12.10;99.90
56256;DHT22;57229;51.432;-2.598;2022-11-23T00:25:43;12.10;99.90
56256;DHT22;57229;51.432;-2.598;2022-11-23T00:28:10;12.10;99.90
56256;DHT22;57229;51.432;-2.598;2022-11-23T00:30:35;12.10;99.90
56256;DHT22;57229;51.432;-2.598;2022-11-23T00:33:01;12.10;99.90
56256;DHT22;57229;51.432;-2.598;2022-11-23T00:35:27;12.00;99.90
56256;DHT22;57229;51.432;-2.598;2022-11-23T00:37:52;12.00;99.90
56256;DHT22;57229;51.432;-2.598;2022-11-23T00:40:18;12.00;99.90
56256;DHT22;57229;51.432;-2.598;2022-11-23T00:42:44;12.00;99.90
56256;DHT22;57229;51.432;-2.598;2022-11-23T00:45:09;12.00;99.90
56256;DHT22;57229;51.432;-2.598;2022-11-23T00:47:35;12.10;99.90
56256;DHT22;57229;51.432;-2.598;2022-11-23T00:50:01;12.00;99.90
56256;DHT22;57229;51.432;-2.598;2022-11-23T00:52:27;12.00;99.90
56256;DHT22;57229;51.432;-2.598;2022-11-23T00:54:53;12.00;99.90
56256;DHT22;57229;51.432;-2.598;2022-11-23T00:57:18;12.00;99.90
56256;DHT22;57229;51.432;-2.598;2022-11-23T00:59:44;12.00;99.90
56256;DHT22;57229;51.432;-2.598;2022-11-23T01:02:10;12.00;99.90
56256;DHT22;57229;51.432;-2.598;2022-11-23T01:04:37;12.00;99.90
56256;DHT22;57229;51.432;-2.598;2022-11-23T01:07:03;12.00;99.90
56256;DHT22;57229;51.432;-2.598;2022-11-23T01:09:29;11.90;99.90
56256;DHT22;57229;51.432;-2.598;2022-11-23T01:11:54;12.00;99.90
56256;DHT22;57229;51.432;-2.598;2022-11-23T01:14:21;11.90;99.90
56256;DHT22;57229;51.432;-2.598;2022-11-23T01:16:47;11.90;99.90
56256;DHT22;57229;51.432;-2.598;2022-11-23T01:19:16;12.70;99.90
56256;DHT22;57229;51.432;-2.598;2022-11-23T01:21:42;11.90;99.90
56256;DHT22;57229;51.432;-2.598;2022-11-23T01:24:12;11.90;99.90
56256;DHT22;57229;51.432;-2.598;2022-11-23T01:26:39;11.90;99.90
56256;DHT22;57229;51.432;-2.598;2022-11-23T01:29:04;11.90;99.90
56256;DHT22;57229;51.432;-2.598;2022-11-23T01:31:30;11.90;99.90
56256;DHT22;57229;51.432;-2.598;2022-11-23T01:33:58;11.90;99.90
56256;DHT22;57229;51.432;-2.598;2022-11-23T01:36:26;11.90;99.90
56256;DHT22;57229;51.432;-2.598;2022-11-23T01:38:53;11.80;99.90
56256;DHT22;57229;51.432;-2.598;2022-11-23T01:41:24;11.80;99.90
56256;DHT22;57229;51.432;-2.598;2022-11-23T01:43:51;11.80;99.90
56256;DHT22;57229;51.432;-2.598;2022-11-23T01:46:17;11.80;99.90
56256;DHT22;57229;51.432;-2.598;2022-11-23T01:49:02;11.80;99.90
56256;DHT22;57229;51.432;-2.598;2022-11-23T01:51:32;11.80;99.90
56256;DHT22;57229;51.432;-2.598;2022-11-23T01:54:03;11.80;99.90
56256;DHT22;57229;51.432;-2.598;2022-11-23T01:56:33;11.80;99.90
56256;DHT22;57229;51.432;-2.598;2022-11-23T01:59:02;11.80;99.90
56256;DHT22;57229;51.432;-2.598;2022-11-23T02:01:29;11.70;99.90
56256;DHT22;57229;51.432;-2.598;2022-11-23T02:03:58;11.70;99.90
56256;DHT22;57229;51.432;-2.598;2022-11-23T02:06:25;11.70;99.90
56256;DHT22;57229;51.432;-2.598;2022-11-23T02:08:51;11.80;99.90
56256;DHT22;57229;51.432;-2.598;2022-11-23T02:11:18;11.70;99.90
56256;DHT22;57229;51.432;-2.598;2022-11-23T02:13:45;11.70;99.90
56256;DHT22;57229;51.432;-2.598;2022-11-23T02:16:12;11.70;99.90
56256;DHT22;57229;51.432;-2.598;2022-11-23T02:18:43;11.70;99.90
56256;DHT22;57229;51.432;-2.598;2022-11-23T02:21:09;11.70;99.90
56256;DHT22;57229;51.432;-2.598;2022-11-23T02:23:54;11.70;99.90
56256;DHT22;57229;51.432;-2.598;2022-11-23T02:26:27;11.60;99.90
56256;DHT22;57229;51.432;-2.598;2022-11-23T02:29:05;11.70;99.90
56256;DHT22;57229;51.432;-2.598;2022-11-23T02:31:32;11.70;99.90
56256;DHT22;57229;51.432;-2.598;2022-11-23T02:33:58;11.60;99.90
56256;DHT22;57229;51.432;-2.598;2022-11-23T02:38:53;11.70;99.90
56256;DHT22;57229;51.432;-2.598;2022-11-23T02:41:19;11.60;99.90
56256;DHT22;57229;51.432;-2.598;2022-11-23T02:43:47;11.70;99.90
56256;DHT22;57229;51.432;-2.598;2022-11-23T02:46:17;11.70;99.90
56256;DHT22;57229;51.432;-2.598;2022-11-23T02:48:43;11.80;99.90
56256;DHT22;57229;51.432;-2.598;2022-11-23T02:51:08;11.80;99.90
56256;DHT22;57229;51.432;-2.598;2022-11-23T02:53:34;11.80;99.90
56256;DHT22;57229;51.432;-2.598;2022-11-23T02:56:00;11.90;99.90
56256;DHT22;57229;51.432;-2.598;2022-11-23T02:58:25;11.90;99.90
56256;DHT22;57229;51.432;-2.598;2022-11-23T03:00:51;11.90;99.90
56256;DHT22;57229;51.432;-2.598;2022-11-23T03:03:17;11.80;99.90
56256;DHT22;57229;51.432;-2.598;2022-11-23T03:05:42;11.90;99.90
56256;DHT22;57229;51.432;-2.598;2022-11-23T03:08:08;11.90;99.90
56256;DHT22;57229;51.432;-2.598;2022-11-23T03:10:34;11.90;99.90
56256;DHT22;57229;51.432;-2.598;2022-11-23T03:12:59;11.90;99.90
56256;DHT22;57229;51.432;-2.598;2022-11-23T03:15:25;11.90;99.90
56256;DHT22;57229;51.432;-2.598;2022-11-23T03:17:51;11.90;99.90
56256;DHT22;57229;51.432;-2.598;2022-11-23T03:20:17;11.90;99.90
56256;DHT22;57229;51.432;-2.598;2022-11-23T03:22:44;11.90;99.90
56256;DHT22;57229;51.432;-2.598;2022-11-23T03:25:10;11.90;99.90
56256;DHT22;57229;51.432;-2.598;2022-11-23T03:27:38;11.90;99.90
56256;DHT22;57229;51.432;-2.598;2022-11-23T03:30:06;11.60;99.90
56256;DHT22;57229;51.432;-2.598;2022-11-23T03:32:32;11.90;99.90
56256;DHT22;57229;51.432;-2.598;2022-11-23T03:34:58;11.90;99.90
56256;DHT22;57229;51.432;-2.598;2022-11-23T03:37:23;11.90;99.90
56256;DHT22;57229;51.432;-2.598;2022-11-23T03:39:49;11.90;99.90
56256;DHT22;57229;51.432;-2.598;2022-11-23T03:42:15;11.90;99.90
56256;DHT22;57229;51.432;-2.598;2022-11-23T03:44:41;11.90;99.90
56256;DHT22;57229;51.432;-2.598;2022-11-23T03:47:06;11.90;99.90
56256;DHT22;57229;51.432;-2.598;2022-11-23T03:49:32;11.70;99.90
56256;DHT22;57229;51.432;-2.598;2022-11-23T03:51:58;11.90;99.90
56256;DHT22;57229;51.432;-2.598;2022-11-23T03:54:23;11.90;99.90
56256;DHT22;57229;51.432;-2.598;2022-11-23T03:56:49;11.90;99.90
56256;DHT22;57229;51.432;-2.598;2022-11-23T03:59:14;11.90;99.90
56256;DHT22;57229;51.432;-2.598;2022-11-23T04:01:40;11.90;99.90
56256;DHT22;57229;51.432;-2.598;2022-11-23T04:04:06;11.90;99.90
56256;DHT22;57229;51.432;-2.598;2022-11-23T04:06:34;11.90;99.90
56256;DHT22;57229;51.432;-2.598;2022-11-23T04:09:00;11.90;99.90
56256;DHT22;57229;51.432;-2.598;2022-11-23T04:11:25;11.90;99.90
56256;DHT22;57229;51.432;-2.598;2022-11-23T04:13:51;11.90;99.90
56256;DHT22;57229;51.432;-2.598;2022-11-23T04:16:17;11.90;99.90
56256;DHT22;57229;51.432;-2.598;2022-11-23T04:18:42;11.90;99.90
56256;DHT22;57229;51.432;-2.598;2022-11-23T04:21:08;11.90;99.90
56256;DHT22;57229;51.432;-2.598;2022-11-23T04:23:33;12.00;99.90
56256;DHT22;57229;51.432;-2.598;2022-11-23T04:25:59;11.90;99.90
56256;DHT22;57229;51.432;-2.598;2022-11-23T04:28:25;12.00;99.90
56256;DHT22;57229;51.432;-2.598;2022-11-23T04:30:51;12.00;99.90
56256;DHT22;57229;51.432;-2.598;2022-11-23T04:33:16;12.00;99.90
56256;DHT22;57229;51.432;-2.598;2022-11-23T04:35:42;12.00;99.90
56256;DHT22;57229;51.432;-2.598;2022-11-23T04:38:08;12.00;99.90
56256;DHT22;57229;51.432;-2.598;2022-11-23T04:40:34;12.00;99.90
56256;DHT22;57229;51.432;-2.598;2022-11-23T04:42:59;12.00;99.90
56256;DHT22;57229;51.432;-2.598;2022-11-23T04:45:25;12.00;99.90
56256;DHT22;57229;51.432;-2.598;2022-11-23T04:47:51;12.00;99.90
56256;DHT22;57229;51.432;-2.598;2022-11-23T04:50:17;12.00;99.90
56256;DHT22;57229;51.432;-2.598;2022-11-23T04:52:48;12.00;99.90
56256;DHT22;57229;51.432;-2.598;2022-11-23T04:55:17;12.00;99.90
56256;DHT22;57229;51.432;-2.598;2022-11-23T04:57:42;12.00;99.90
56256;DHT22;57229;51.432;-2.598;2022-11-23T05:00:09;12.00;99.90
56256;DHT22;57229;51.432;-2.598;2022-11-23T05:02:35;12.00;99.90
56256;DHT22;57229;51.432;-2.598;2022-11-23T05:05:00;12.10;99.90
56256;DHT22;57229;51.432;-2.598;2022-11-23T05:07:26;12.00;99.90
56256;DHT22;57229;51.432;-2.598;2022-11-23T05:09:52;12.00;99.90
56256;DHT22;57229;51.432;-2.598;2022-11-23T05:12:17;12.10;99.90
56256;DHT22;57229;51.432;-2.598;2022-11-23T05:14:43;12.10;99.90
56256;DHT22;57229;51.432;-2.598;2022-11-23T05:17:09;12.10;99.90
56256;DHT22;57229;51.432;-2.598;2022-11-23T05:19:35;12.20;99.90
56256;DHT22;57229;51.432;-2.598;2022-11-23T05:22:01;12.10;99.90
56256;DHT22;57229;51.432;-2.598;2022-11-23T05:24:26;12.10;99.90
56256;DHT22;57229;51.432;-2.598;2022-11-23T05:26:52;12.10;99.90
56256;DHT22;57229;51.432;-2.598;2022-11-23T05:29:18;12.10;99.90
56256;DHT22;57229;51.432;-2.598;2022-11-23T05:31:43;12.10;99.90
56256;DHT22;57229;51.432;-2.598;2022-11-23T05:34:09;12.10;99.90
56256;DHT22;57229;51.432;-2.598;2022-11-23T05:36:35;12.10;99.90
56256;DHT22;57229;51.432;-2.598;2022-11-23T05:39:00;12.10;99.90
56256;DHT22;57229;51.432;-2.598;2022-11-23T05:41:26;12.10;99.90
56256;DHT22;57229;51.432;-2.598;2022-11-23T05:43:52;12.10;99.90
56256;DHT22;57229;51.432;-2.598;2022-11-23T05:46:18;12.10;99.90
56256;DHT22;57229;51.432;-2.598;2022-11-23T05:48:44;12.10;99.90
56256;DHT22;57229;51.432;-2.598;2022-11-23T05:51:09;12.10;99.90
56256;DHT22;57229;51.432;-2.598;2022-11-23T05:53:35;12.10;99.90
56256;DHT22;57229;51.432;-2.598;2022-11-23T05:56:02;12.10;99.90
56256;DHT22;57229;51.432;-2.598;2022-11-23T05:58:28;12.10;99.90
56256;DHT22;57229;51.432;-2.598;2022-11-23T06:01:00;12.20;99.90
56256;DHT22;57229;51.432;-2.598;2022-11-23T06:03:27;12.10;99.90
56256;DHT22;57229;51.432;-2.598;2022-11-23T06:05:53;12.20;99.90
56256;DHT22;57229;51.432;-2.598;2022-11-23T06:08:18;12.20;99.90
56256;DHT22;57229;51.432;-2.598;2022-11-23T06:10:44;12.20;99.90
56256;DHT22;57229;51.432;-2.598;2022-11-23T06:13:10;12.20;99.90
56256;DHT22;57229;51.432;-2.598;2022-11-23T06:15:36;12.20;99.90
56256;DHT22;57229;51.432;-2.598;2022-11-23T06:18:02;12.20;99.90
56256;DHT22;57229;51.432;-2.598;2022-11-23T06:20:33;12.20;99.90
56256;DHT22;57229;51.432;-2.598;2022-11-23T06:22:59;12.20;99.90
56256;DHT22;57229;51.432;-2.598;2022-11-23T06:25:25;12.20;99.90
56256;DHT22;57229;51.432;-2.598;2022-11-23T06:27:59;12.20;99.90
56256;DHT22;57229;51.432;-2.598;2022-11-23T06:30:28;12.20;99.90
56256;DHT22;57229;51.432;-2.598;2022-11-23T06:32:55;12.20;99.90
56256;DHT22;57229;51.432;-2.598;2022-11-23T06:35:21;12.20;99.90
56256;DHT22;57229;51.432;-2.598;2022-11-23T06:37:48;12.20;99.90
56256;DHT22;57229;51.432;-2.598;2022-11-23T06:40:25;12.20;99.90
56256;DHT22;57229;51.432;-2.598;2022-11-23T06:42:51;12.20;99.90
56256;DHT22;57229;51.432;-2.598;2022-11-23T06:45:21;12.20;99.90
56256;DHT22;57229;51.432;-2.598;2022-11-23T06:47:47;12.20;99.90
56256;DHT22;57229;51.432;-2.598;2022-11-23T06:50:13;12.20;99.90
56256;DHT22;57229;51.432;-2.598;2022-11-23T06:52:39;12.20;99.90
56256;DHT22;57229;51.432;-2.598;2022-11-23T06:55:05;12.20;99.90
56256;DHT22;57229;51.432;-2.598;2022-11-23T06:57:31;12.20;99.90
56256;DHT22;57229;51.432;-2.598;2022-11-23T06:59:57;12.20;99.90
56256;DHT22;57229;51.432;-2.598;2022-11-23T07:02:24;12.20;99.90
56256;DHT22;57229;51.432;-2.598;2022-11-23T07:04:50;12.20;99.90
56256;DHT22;57229;51.432;-2.598;2022-11-23T07:07:17;12.20;99.90
56256;DHT22;57229;51.432;-2.598;2022-11-23T07:09:43;12.20;99.90
56256;DHT22;57229;51.432;-2.598;2022-11-23T07:12:08;12.20;99.90
56256;DHT22;57229;51.432;-2.598;2022-11-23T07:14:34;12.20;99.90
56256;DHT22;57229;51.432;-2.598;2022-11-23T07:17:00;12.30;99.90
56256;DHT22;57229;51.432;-2.598;2022-11-23T07:19:25;12.20;99.90
56256;DHT22;57229;51.432;-2.598;2022-11-23T07:21:51;12.20;99.90
56256;DHT22;57229;51.432;-2.598;2022-11-23T07:24:16;12.20;99.90
56256;DHT22;57229;51.432;-2.598;2022-11-23T07:26:42;12.20;99.90
56256;DHT22;57229;51.432;-2.598;2022-11-23T07:29:09;12.20;99.90
56256;DHT22;57229;51.432;-2.598;2022-11-23T07:31:35;12.20;99.90
56256;DHT22;57229;51.432;-2.598;2022-11-23T07:34:00;12.30;99.90
56256;DHT22;57229;51.432;-2.598;2022-11-23T07:36:26;12.20;99.90
56256;DHT22;57229;51.432;-2.598;2022-11-23T07:38:53;12.20;99.90
56256;DHT22;57229;51.432;-2.598;2022-11-23T07:41:19;12.20;99.90
56256;DHT22;57229;51.432;-2.598;2022-11-23T07:43:44;12.20;99.90
56256;DHT22;57229;51.432;-2.598;2022-11-23T07:46:10;12.20;99.90
56256;DHT22;57229;51.432;-2.598;2022-11-23T07:48:45;12.20;99.90
56256;DHT22;57229;51.432;-2.598;2022-11-23T07:51:12;12.30;99.90
56256;DHT22;57229;51.432;-2.598;2022-11-23T07:53:37;12.30;99.90
56256;DHT22;57229;51.432;-2.598;2022-11-23T07:56:03;12.30;99.90
56256;DHT22;57229;51.432;-2.598;2022-11-23T07:58:29;12.30;99.90
56256;DHT22;57229;51.432;-2.598;2022-11-23T08:00:57;12.30;99.90
56256;DHT22;57229;51.432;-2.598;2022-11-23T08:03:23;12.30;99.90
56256;DHT22;57229;51.432;-2.598;2022-11-23T08:05:48;12.30;99.90
56256;DHT22;57229;51.432;-2.598;2022-11-23T08:08:14;12.30;99.90
56256;DHT22;57229;51.432;-2.598;2022-11-23T08:10:40;12.30;99.90
56256;DHT22;57229;51.432;-2.598;2022-11-23T08:13:06;12.30;99.90
56256;DHT22;57229;51.432;-2.598;2022-11-23T08:15:32;12.30;99.90
56256;DHT22;57229;51.432;-2.598;2022-11-23T08:18:08;12.30;99.90
56256;DHT22;57229;51.432;-2.598;2022-11-23T08:20:34;12.40;99.90
56256;DHT22;57229;51.432;-2.598;2022-11-23T08:22:59;12.40;99.90
56256;DHT22;57229;51.432;-2.598;2022-11-23T08:25:27;12.40;99.90
56256;DHT22;57229;51.432;-2.598;2022-11-23T08:27:58;12.40;99.90
56256;DHT22;57229;51.432;-2.598;2022-11-23T08:30:25;12.40;99.90
56256;DHT22;57229;51.432;-2.598;2022-11-23T08:32:51;12.40;99.90
56256;DHT22;57229;51.432;-2.598;2022-11-23T08:35:17;12.40;99.90
56256;DHT22;57229;51.432;-2.598;2022-11-23T08:37:43;12.40;99.90
56256;DHT22;57229;51.432;-2.598;2022-11-23T08:40:39;12.40;99.90
56256;DHT22;57229;51.432;-2.598;2022-11-23T08:43:05;12.40;99.90
56256;DHT22;57229;51.432;-2.598;2022-11-23T08:48:57;12.40;99.90
56256;DHT22;57229;51.432;-2.598;2022-11-23T08:51:23;12.40;99.90
56256;DHT22;57229;51.432;-2.598;2022-11-23T08:53:49;12.40;99.90
56256;DHT22;57229;51.432;-2.598;2022-11-23T08:56:15;12.40;99.90
56256;DHT22;57229;51.432;-2.598;2022-11-23T08:58:41;12.50;99.90
56256;DHT22;57229;51.432;-2.598;2022-11-23T09:01:11;12.50;99.90
56256;DHT22;57229;51.432;-2.598;2022-11-23T09:03:40;12.50;99.90
56256;DHT22;57229;51.432;-2.598;2022-11-23T09:06:06;12.50;99.90
56256;DHT22;57229;51.432;-2.598;2022-11-23T09:08:32;12.50;99.90
56256;DHT22;57229;51.432;-2.598;2022-11-23T09:11:03;12.50;99.90
56256;DHT22;57229;51.432;-2.598;2022-11-23T09:13:29;12.50;99.90
56256;DHT22;57229;51.432;-2.598;2022-11-23T09:15:59;12.60;99.90
56256;DHT22;57229;51.432;-2.598;2022-11-23T09:18:25;12.60;99.90
56256;DHT22;57229;51.432;-2.598;2022-11-23T09:20:52;12.60;99.90
56256;DHT22;57229;51.432;-2.598;2022-11-23T09:23:18;12.60;99.90
56256;DHT22;57229;51.432;-2.598;2022-11-23T09:25:44;12.60;99.90
56256;DHT22;57229;51.432;-2.598;2022-11-23T09:28:13;12.60;99.90
56256;DHT22;57229;51.432;-2.598;2022-11-23T09:30:43;12.60;99.90
56256;DHT22;57229;51.432;-2.598;2022-11-23T09:33:09;12.60;99.90
56256;DHT22;57229;51.432;-2.598;2022-11-23T09:35:34;12.70;99.90
56256;DHT22;57229;51.432;-2.598;2022-11-23T09:38:00;12.70;99.90
56256;DHT22;57229;51.432;-2.598;2022-11-23T09:40:30;12.70;99.90
56256;DHT22;57229;51.432;-2.598;2022-11-23T09:45:54;12.90;99.90
56256;DHT22;57229;51.432;-2.598;2022-11-23T09:51:19;13.00;99.90
56256;DHT22;57229;51.432;-2.598;2022-11-23T09:56:27;13.20;99.90
56256;DHT22;57229;51.432;-2.598;2022-11-23T09:58:56;13.30;99.90
56256;DHT22;57229;51.432;-2.598;2022-11-23T10:01:22;13.40;99.90
56256;DHT22;57229;51.432;-2.598;2022-11-23T10:03:49;13.40;99.90
56256;DHT22;57229;51.432;-2.598;2022-11-23T10:11:59;13.50;99.90
56256;DHT22;57229;51.432;-2.598;2022-11-23T10:22:58;13.60;99.90
56256;DHT22;57229;51.432;-2.598;2022-11-23T10:25:25;13.70;99.90
56256;DHT22;57229;51.432;-2.598;2022-11-23T10:28:14;13.80;99.90
56256;DHT22;57229;51.432;-2.598;2022-11-23T10:31:06;13.90;99.90
56256;DHT22;57229;51.432;-2.598;2022-11-23T10:33:58;14.00;99.90
56256;DHT22;57229;51.432;-2.598;2022-11-23T10:36:26;14.20;99.90
56256;DHT22;57229;51.432;-2.598;2022-11-23T10:38:57;14.30;99.90
56256;DHT22;57229;51.432;-2.598;2022-11-23T10:41:29;14.50;99.90
56256;DHT22;57229;51.432;-2.598;2022-11-23T10:44:29;14.60;99.90
56256;DHT22;57229;51.432;-2.598;2022-11-23T10:46:57;14.80;99.90
56256;DHT22;57229;51.432;-2.598;2022-11-23T10:49:25;15.00;99.90
56256;DHT22;57229;51.432;-2.598;2022-11-23T10:52:30;15.10;99.90
56256;DHT22;57229;51.432;-2.598;2022-11-23T10:54:59;15.30;99.90
56256;DHT22;57229;51.432;-2.598;2022-11-23T10:57:34;15.50;99.80
56256;DHT22;57229;51.432;-2.598;2022-11-23T11:00:14;15.60;99.50
56256;DHT22;57229;51.432;-2.598;2022-11-23T11:02:43;15.80;99.20
56256;DHT22;57229;51.432;-2.598;2022-11-23T11:08:22;16.10;98.50
56256;DHT22;57229;51.432;-2.598;2022-11-23T11:11:01;16.20;98.20
56256;DHT22;57229;51.432;-2.598;2022-11-23T11:15:57;16.40;97.60
56256;DHT22;57229;51.432;-2.598;2022-11-23T11:18:26;16.50;97.40
56256;DHT22;57229;51.432;-2.598;2022-11-23T11:21:16;16.60;97.30
56256;DHT22;57229;51.432;-2.598;2022-11-23T11:23:53;16.70;97.10
56256;DHT22;57229;51.432;-2.598;2022-11-23T11:32:12;16.70;97.00
56256;DHT22;57229;51.432;-2.598;2022-11-23T11:34:46;16.50;97.10
56256;DHT22;57229;51.432;-2.598;2022-11-23T11:42:52;16.30;97.50
56256;DHT22;57229;51.432;-2.598;2022-11-23T11:45:31;16.40;97.40
56256;DHT22;57229;51.432;-2.598;2022-11-23T11:48:12;16.40;97.40
56256;DHT22;57229;51.432;-2.598;2022-11-23T11:50:59;16.40;97.30
56256;DHT22;57229;51.432;-2.598;2022-11-23T11:53:32;16.40;97.30
56256;DHT22;57229;51.432;-2.598;2022-11-23T11:56:15;16.40;97.40
56256;DHT22;57229;51.432;-2.598;2022-11-23T11:58:50;16.10;97.60
56256;DHT22;57229;51.432;-2.598;2022-11-23T12:05:22;15.90;98.00
56256;DHT22;57229;51.432;-2.598;2022-11-23T12:11:00;16.00;98.10
56256;DHT22;57229;51.432;-2.598;2022-11-23T12:13:37;16.00;98.00
56256;DHT22;57229;51.432;-2.598;2022-11-23T12:35:53;16.00;98.10
56256;DHT22;57229;51.432;-2.598;2022-11-23T12:42:06;16.10;98.00
56256;DHT22;57229;51.432;-2.598;2022-11-23T12:54:30;16.20;97.50
56256;DHT22;57229;51.432;-2.598;2022-11-23T13:07:06;16.30;97.40
56256;DHT22;57229;51.432;-2.598;2022-11-23T13:18:34;16.00;97.80
56256;DHT22;57229;51.432;-2.598;2022-11-23T13:24:29;16.10;97.60
56256;DHT22;57229;51.432;-2.598;2022-11-23T13:35:19;16.40;97.10
56256;DHT22;57229;51.432;-2.598;2022-11-23T13:40:26;16.20;97.50
56256;DHT22;57229;51.432;-2.598;2022-11-23T13:42:55;16.00;97.40
56256;DHT22;57229;51.432;-2.598;2022-11-23T13:45:25;15.90;98.00
56256;DHT22;57229;51.432;-2.598;2022-11-23T13:50:59;15.60;98.60
56256;DHT22;57229;51.432;-2.598;2022-11-23T13:53:28;15.50;98.80
56256;DHT22;57229;51.432;-2.598;2022-11-23T13:56:30;15.50;99.10
56256;DHT22;57229;51.432;-2.598;2022-11-23T14:04:41;15.40;99.10
56256;DHT22;57229;51.432;-2.598;2022-11-23T14:09:51;15.20;99.20
56256;DHT22;57229;51.432;-2.598;2022-11-23T14:12:25;15.20;99.40
56256;DHT22;57229;51.432;-2.598;2022-11-23T14:23:27;15.10;99.50
56256;DHT22;57229;51.432;-2.598;2022-11-23T14:29:06;15.00;99.80
56256;DHT22;57229;51.432;-2.598;2022-11-23T14:31:59;14.90;99.80
56256;DHT22;57229;51.432;-2.598;2022-11-23T14:35:10;14.90;99.90
56256;DHT22;57229;51.432;-2.598;2022-11-23T14:40:42;14.80;99.90
56256;DHT22;57229;51.432;-2.598;2022-11-23T14:43:13;14.80;99.90
56256;DHT22;57229;51.432;-2.598;2022-11-23T14:45:44;14.80;99.90
56256;DHT22;57229;51.432;-2.598;2022-11-23T14:48:30;14.80;99.90
56256;DHT22;57229;51.432;-2.598;2022-11-23T14:51:05;14.70;99.90
56256;DHT22;57229;51.432;-2.598;2022-11-23T14:53:52;14.70;99.90
56256;DHT22;57229;51.432;-2.598;2022-11-23T14:59:08;14.60;99.90
56256;DHT22;57229;51.432;-2.598;2022-11-23T15:01:35;14.60;99.90
56256;DHT22;57229;51.432;-2.598;2022-11-23T15:07:16;14.50;99.90
56256;DHT22;57229;51.432;-2.598;2022-11-23T15:14:49;14.40;99.90
56256;DHT22;57229;51.432;-2.598;2022-11-23T15:17:17;14.40;99.90
56256;DHT22;57229;51.432;-2.598;2022-11-23T15:19:55;14.40;99.90
56256;DHT22;57229;51.432;-2.598;2022-11-23T15:22:21;14.30;99.90
56256;DHT22;57229;51.432;-2.598;2022-11-23T15:25:05;14.30;99.90
56256;DHT22;57229;51.432;-2.598;2022-11-23T15:27:41;14.20;99.90
56256;DHT22;57229;51.432;-2.598;2022-11-23T15:30:18;14.20;99.90
56256;DHT22;57229;51.432;-2.598;2022-11-23T15:32:58;14.20;99.90
56256;DHT22;57229;51.432;-2.598;2022-11-23T15:35:32;14.20;99.90
56256;DHT22;57229;51.432;-2.598;2022-11-23T15:38:00;14.20;99.90
56256;DHT22;57229;51.432;-2.598;2022-11-23T15:40:32;14.20;99.90
56256;DHT22;57229;51.432;-2.598;2022-11-23T15:42:59;14.20;99.90
56256;DHT22;57229;51.432;-2.598;2022-11-23T15:48:25;14.10;99.90
56256;DHT22;57229;51.432;-2.598;2022-11-23T15:50:53;14.10;99.90
56256;DHT22;57229;51.432;-2.598;2022-11-23T15:53:48;14.00;99.90
56256;DHT22;57229;51.432;-2.598;2022-11-23T15:56:34;14.00;99.90
56256;DHT22;57229;51.432;-2.598;2022-11-23T15:59:19;13.90;99.90
56256;DHT22;57229;51.432;-2.598;2022-11-23T16:01:48;14.40;99.90
56256;DHT22;57229;51.432;-2.598;2022-11-23T16:04:28;13.90;99.90
56256;DHT22;57229;51.432;-2.598;2022-11-23T16:06:55;13.90;99.90
56256;DHT22;57229;51.432;-2.598;2022-11-23T16:09:34;13.80;99.90
56256;DHT22;57229;51.432;-2.598;2022-11-23T16:12:00;13.80;99.90
56256;DHT22;57229;51.432;-2.598;2022-11-23T16:14:28;13.70;99.90
56256;DHT22;57229;51.432;-2.598;2022-11-23T16:19:29;13.70;99.90
56256;DHT22;57229;51.432;-2.598;2022-11-23T16:22:03;13.70;99.90
56256;DHT22;57229;51.432;-2.598;2022-11-23T16:24:31;13.60;99.90
56256;DHT22;57229;51.432;-2.598;2022-11-23T16:26:58;13.60;99.90
56256;DHT22;57229;51.432;-2.598;2022-11-23T16:29:25;13.60;99.90
56256;DHT22;57229;51.432;-2.598;2022-11-23T16:31:59;13.60;99.90
56256;DHT22;57229;51.432;-2.598;2022-11-23T16:34:25;13.60;99.90
56256;DHT22;57229;51.432;-2.598;2022-11-23T16:36:53;13.50;99.90
56256;DHT22;57229;51.432;-2.598;2022-11-23T16:39:21;13.50;99.90
56256;DHT22;57229;51.432;-2.598;2022-11-23T16:41:47;13.50;99.90
56256;DHT22;57229;51.432;-2.598;2022-11-23T16:44:14;14.00;99.90
56256;DHT22;57229;51.432;-2.598;2022-11-23T16:46:39;13.50;99.90
56256;DHT22;57229;51.432;-2.598;2022-11-23T16:49:13;13.50;99.90
56256;DHT22;57229;51.432;-2.598;2022-11-23T16:51:40;13.50;99.90
56256;DHT22;57229;51.432;-2.598;2022-11-23T16:54:07;13.60;99.90
56256;DHT22;57229;51.432;-2.598;2022-11-23T16:56:33;13.60;99.90
56256;DHT22;57229;51.432;-2.598;2022-11-23T16:58:59;13.70;99.90
56256;DHT22;57229;51.432;-2.598;2022-11-23T17:01:26;13.70;99.90
56256;DHT22;57229;51.432;-2.598;2022-11-23T17:03:54;13.80;99.90
56256;DHT22;57229;51.432;-2.598;2022-11-23T17:06:20;13.80;99.90
56256;DHT22;57229;51.432;-2.598;2022-11-23T17:08:51;13.90;99.90
56256;DHT22;57229;51.432;-2.598;2022-11-23T17:11:22;13.90;99.90
56256;DHT22;57229;51.432;-2.598;2022-11-23T17:13:51;14.00;99.90
56256;DHT22;57229;51.432;-2.598;2022-11-23T17:16:21;14.00;99.90
56256;DHT22;57229;51.432;-2.598;2022-11-23T17:18:47;14.10;99.90
56256;DHT22;57229;51.432;-2.598;2022-11-23T17:21:13;14.20;99.90
56256;DHT22;57229;51.432;-2.598;2022-11-23T17:23:39;14.20;99.90
56256;DHT22;57229;51.432;-2.598;2022-11-23T17:26:38;14.20;99.90
56256;DHT22;57229;51.432;-2.598;2022-11-23T17:29:09;14.30;99.90
56256;DHT22;57229;51.432;-2.598;2022-11-23T17:31:36;14.30;99.90
56256;DHT22;57229;51.432;-2.598;2022-11-23T17:34:02;14.30;99.90
56256;DHT22;57229;51.432;-2.598;2022-11-23T17:36:29;14.30;99.90
56256;DHT22;57229;51.432;-2.598;2022-11-23T17:38:56;14.30;99.90
56256;DHT22;57229;51.432;-2.598;2022-11-23T17:41:22;14.30;99.90
56256;DHT22;57229;51.432;-2.598;2022-11-23T17:43:48;14.30;99.90
56256;DHT22;57229;51.432;-2.598;2022-11-23T17:46:19;14.30;99.90
56256;DHT22;57229;51.432;-2.598;2022-11-23T17:48:56;14.30;99.90
56256;DHT22;57229;51.432;-2.598;2022-11-23T17:51:22;14.30;99.90
56256;DHT22;57229;51.432;-2.598;2022-11-23T17:53:48;14.30;99.90
56256;DHT22;57229;51.432;-2.598;2022-11-23T17:56:22;14.40;99.90
56256;DHT22;57229;51.432;-2.598;2022-11-23T17:58:48;14.30;99.90
56256;DHT22;57229;51.432;-2.598;2022-11-23T18:01:15;14.40;99.90
56256;DHT22;57229;51.432;-2.598;2022-11-23T18:03:42;14.30;99.90
56256;DHT22;57229;51.432;-2.598;2022-11-23T18:06:14;14.30;99.90
56256;DHT22;57229;51.432;-2.598;2022-11-23T18:08:43;14.30;99.90
56256;DHT22;57229;51.432;-2.598;2022-11-23T18:11:20;14.30;99.90